createdAt,value
2022-10-17T00:00:09.079Z,15.40
2022-10-17T00:02:35.769Z,15.30
2022-10-17T00:05:02.452Z,15.20
2022-10-17T00:07:30.819Z,15.10
2022-10-17T00:09:57.820Z,14.90
2022-10-17T00:12:24.503Z,14.70
2022-10-17T00:14:51.140Z,14.60
2022-10-17T00:17:17.881Z,14.60
2022-10-17T00:19:44.618Z,14.80
2022-10-17T00:22:11.353Z,14.90
2022-10-17T00:24:38.065Z,14.80
2022-10-17T00:27:04.889Z,14.80
2022-10-17T00:29:31.593Z,14.60
2022-10-17T00:31:58.333Z,14.70
2022-10-17T00:34:25.726Z,14.70
2022-10-17T00:36:52.418Z,14.70
2022-10-17T00:39:19.222Z,14.80
2022-10-17T00:41:45.890Z,14.80
2022-10-17T00:44:30.794Z,14.80
2022-10-17T00:47:04.980Z,15.00
2022-10-17T00:49:35.787Z,14.90
2022-10-17T00:52:06.437Z,15.00
2022-10-17T00:54:36.891Z,15.00
2022-10-17T00:57:04.470Z,15.00
2022-10-17T00:59:34.129Z,15.00
2022-10-17T01:02:07.115Z,15.00
2022-10-17T01:04:33.981Z,15.00
2022-10-17T01:07:00.630Z,15.10
2022-10-17T01:09:27.767Z,15.00
2022-10-17T01:12:32.165Z,15.10
2022-10-17T01:15:07.789Z,15.10
2022-10-17T01:17:37.517Z,15.10
2022-10-17T01:20:28.427Z,14.90
2022-10-17T01:23:14.995Z,14.90
2022-10-17T01:25:53.812Z,14.80
2022-10-17T01:28:51.926Z,14.80
2022-10-17T01:31:26.608Z,14.80
2022-10-17T01:34:31.944Z,14.50
2022-10-17T01:37:06.745Z,14.50
2022-10-17T01:39:46.986Z,14.50
2022-10-17T01:42:18.315Z,14.40
2022-10-17T01:45:10.394Z,14.20
2022-10-17T01:47:38.370Z,14.00
2022-10-17T01:50:12.129Z,14.00
2022-10-17T01:53:03.611Z,13.80
2022-10-17T01:55:37.934Z,13.70
2022-10-17T01:58:10.248Z,13.50
2022-10-17T02:01:00.545Z,13.40
2022-10-17T02:03:28.585Z,13.40
2022-10-17T02:05:55.356Z,13.40
2022-10-17T02:12:17.161Z,13.50
2022-10-17T02:14:58.351Z,13.60
2022-10-17T02:17:37.081Z,13.70
2022-10-17T02:20:31.327Z,13.90
2022-10-17T02:23:33.724Z,14.10
2022-10-17T02:26:30.023Z,14.30
2022-10-17T02:29:11.417Z,14.40
2022-10-17T02:32:00.223Z,14.40
2022-10-17T02:34:43.200Z,14.40
2022-10-17T02:37:12.852Z,14.40
2022-10-17T02:39:41.068Z,14.40
2022-10-17T02:42:11.011Z,14.30
2022-10-17T02:44:43.384Z,14.30
2022-10-17T02:47:18.965Z,14.30
2022-10-17T02:49:54.827Z,14.20
2022-10-17T02:52:24.344Z,14.10
2022-10-17T02:55:20.450Z,14.20
2022-10-17T02:57:56.237Z,14.10
2022-10-17T03:00:25.018Z,13.90
2022-10-17T03:02:53.816Z,13.90
2022-10-17T03:05:26.880Z,13.80
2022-10-17T03:07:54.390Z,13.90
2022-10-17T03:10:21.993Z,13.90
2022-10-17T03:12:48.848Z,13.90
2022-10-17T03:15:15.708Z,13.80
2022-10-17T03:17:42.461Z,13.70
2022-10-17T03:20:09.735Z,13.70
2022-10-17T03:22:36.458Z,13.60
2022-10-17T03:25:03.227Z,13.60
2022-10-17T03:27:30.092Z,13.50
2022-10-17T03:29:57.092Z,13.50
2022-10-17T03:32:23.738Z,13.30
2022-10-17T03:34:50.379Z,13.30
2022-10-17T03:37:17.035Z,13.10
2022-10-17T03:39:43.691Z,13.10
2022-10-17T03:42:10.371Z,13.20
2022-10-17T03:44:37.008Z,13.20
2022-10-17T03:47:03.755Z,13.10
2022-10-17T03:49:30.390Z,13.00
2022-10-17T03:51:57.094Z,12.80
2022-10-17T03:54:23.756Z,12.80
2022-10-17T03:56:50.451Z,12.90
2022-10-17T03:59:17.145Z,12.90
2022-10-17T04:01:44.240Z,12.90
2022-10-17T04:04:11.176Z,12.80
2022-10-17T04:06:38.739Z,12.90
2022-10-17T04:09:06.792Z,13.00
2022-10-17T04:11:33.872Z,13.00
2022-10-17T04:14:00.597Z,13.10
2022-10-17T04:16:27.852Z,13.10
2022-10-17T04:18:59.277Z,13.00
2022-10-17T04:21:28.160Z,13.00
2022-10-17T04:23:59.410Z,13.10
2022-10-17T04:26:27.181Z,13.10
2022-10-17T04:28:53.917Z,13.10
2022-10-17T04:31:21.025Z,13.00
2022-10-17T04:33:49.379Z,13.00
2022-10-17T04:36:18.837Z,12.90
2022-10-17T04:38:45.909Z,12.80
2022-10-17T04:41:15.065Z,12.80
2022-10-17T04:43:44.475Z,12.90
2022-10-17T04:46:15.256Z,13.00
2022-10-17T04:48:42.261Z,13.10
2022-10-17T04:51:12.600Z,13.20
2022-10-17T04:53:40.239Z,13.30
2022-10-17T04:56:16.224Z,13.30
2022-10-17T04:58:44.326Z,13.30
2022-10-17T05:01:14.093Z,13.20
2022-10-17T05:03:41.419Z,13.30
2022-10-17T05:06:17.671Z,13.20
2022-10-17T05:08:45.327Z,13.20
2022-10-17T05:11:23.843Z,13.20
2022-10-17T05:13:55.829Z,13.20
2022-10-17T05:16:23.368Z,13.20
2022-10-17T05:18:53.009Z,13.20
2022-10-17T05:21:21.125Z,13.20
2022-10-17T05:23:47.977Z,13.10
2022-10-17T05:26:14.818Z,13.00
2022-10-17T05:28:41.690Z,13.10
2022-10-17T05:31:10.090Z,12.90
2022-10-17T05:33:37.505Z,12.90
2022-10-17T05:36:05.370Z,12.90
2022-10-17T05:38:32.800Z,12.80
2022-10-17T05:41:04.773Z,12.80
2022-10-17T05:43:32.188Z,12.60
2022-10-17T05:45:58.858Z,12.60
2022-10-17T05:48:25.527Z,12.70
2022-10-17T05:51:02.258Z,12.50
2022-10-17T05:53:34.700Z,12.60
2022-10-17T05:56:03.723Z,12.70
2022-10-17T05:59:01.060Z,12.70
2022-10-17T06:01:18.013Z,12.80
2022-10-17T06:03:44.714Z,12.70
2022-10-17T06:06:13.446Z,12.70
2022-10-17T06:08:40.183Z,12.70
2022-10-17T06:11:09.944Z,12.70
2022-10-17T06:13:38.156Z,12.70
2022-10-17T06:16:05.532Z,12.80
2022-10-17T06:18:32.332Z,12.80
2022-10-17T06:21:07.914Z,12.80
2022-10-17T06:23:34.807Z,12.90
2022-10-17T06:26:03.549Z,12.80
2022-10-17T06:28:30.279Z,12.80
2022-10-17T06:30:57.263Z,13.00
2022-10-17T06:33:24.067Z,13.10
2022-10-17T06:35:54.953Z,13.10
2022-10-17T06:38:22.501Z,13.00
2022-10-17T06:40:49.214Z,13.10
2022-10-17T06:43:15.895Z,13.10
2022-10-17T06:45:42.628Z,13.00
2022-10-17T06:48:09.513Z,12.90
2022-10-17T06:50:36.348Z,12.90
2022-10-17T06:53:03.223Z,12.80
2022-10-17T06:55:31.911Z,12.80
2022-10-17T06:57:58.890Z,12.80
2022-10-17T07:00:26.833Z,12.90
2022-10-17T07:02:53.575Z,12.90
2022-10-17T07:05:20.346Z,12.90
2022-10-17T07:07:48.560Z,13.00
2022-10-17T07:10:18.769Z,13.00
2022-10-17T07:12:45.855Z,13.10
2022-10-17T07:15:12.725Z,13.10
2022-10-17T07:17:39.446Z,13.10
2022-10-17T07:20:06.731Z,13.20
2022-10-17T07:22:33.411Z,13.20
2022-10-17T07:25:00.106Z,13.30
2022-10-17T07:27:27.299Z,13.30
2022-10-17T07:29:54.205Z,13.40
2022-10-17T07:32:20.872Z,13.50
2022-10-17T07:34:47.531Z,13.60
2022-10-17T07:37:14.209Z,13.60
2022-10-17T07:39:40.886Z,13.70
2022-10-17T07:42:07.806Z,13.70
2022-10-17T07:44:35.483Z,13.80
2022-10-17T07:47:02.295Z,13.80
2022-10-17T07:49:29.468Z,13.80
2022-10-17T07:51:56.259Z,13.80
2022-10-17T07:54:23.105Z,13.90
2022-10-17T07:56:50.668Z,14.00
2022-10-17T07:59:19.029Z,14.00
2022-10-17T08:01:45.827Z,14.10
2022-10-17T08:04:12.508Z,14.10
2022-10-17T08:06:39.200Z,14.20
2022-10-17T08:09:06.034Z,14.20
2022-10-17T08:11:32.904Z,14.30
2022-10-17T08:13:59.584Z,14.40
2022-10-17T08:16:26.380Z,14.40
2022-10-17T08:18:53.326Z,14.50
2022-10-17T08:21:20.097Z,14.50
2022-10-17T08:23:46.777Z,14.60
2022-10-17T08:26:16.805Z,14.70
2022-10-17T08:28:43.735Z,14.70
2022-10-17T08:31:15.884Z,14.80
2022-10-17T08:33:42.963Z,14.80
2022-10-17T08:36:10.165Z,14.90
2022-10-17T08:38:43.030Z,15.00
2022-10-17T08:41:37.534Z,15.00
2022-10-17T08:44:36.648Z,15.20
2022-10-17T08:47:08.978Z,15.30
2022-10-17T08:49:52.596Z,15.40
2022-10-17T08:52:19.239Z,15.60
2022-10-17T08:54:48.064Z,15.70
2022-10-17T08:57:16.804Z,15.70
2022-10-17T08:59:46.081Z,15.80
2022-10-17T09:02:41.445Z,15.80
2022-10-17T09:05:23.917Z,15.90
2022-10-17T09:08:28.291Z,16.10
2022-10-17T09:11:12.770Z,16.20
2022-10-17T09:13:39.373Z,16.30
2022-10-17T09:16:26.329Z,16.40
2022-10-17T09:19:04.399Z,16.40
2022-10-17T09:21:42.837Z,16.50
2022-10-17T09:24:18.131Z,16.60
2022-10-17T09:26:46.897Z,16.60
2022-10-17T09:29:25.401Z,16.70
2022-10-17T09:32:03.313Z,16.80
2022-10-17T09:34:32.277Z,16.90
2022-10-17T09:37:00.848Z,16.90
2022-10-17T09:39:32.118Z,16.90
2022-10-17T09:42:01.381Z,17.00
2022-10-17T09:44:41.798Z,17.00
2022-10-17T09:47:18.356Z,17.00
2022-10-17T09:49:47.542Z,17.20
2022-10-17T09:52:20.580Z,17.30
2022-10-17T09:55:01.290Z,17.40
2022-10-17T09:57:28.238Z,17.50
2022-10-17T10:00:02.457Z,17.60
2022-10-17T10:02:32.562Z,17.60
2022-10-17T10:05:17.418Z,17.70
2022-10-17T10:08:00.346Z,17.90
2022-10-17T10:10:29.450Z,17.90
2022-10-17T10:13:14.688Z,18.00
2022-10-17T10:15:42.476Z,18.10
2022-10-17T10:21:10.494Z,18.30
2022-10-17T10:23:40.634Z,18.50
2022-10-17T10:26:23.508Z,18.60
2022-10-17T10:29:30.882Z,18.70
2022-10-17T10:32:07.523Z,18.80
2022-10-17T10:34:36.021Z,19.00
2022-10-17T10:37:06.819Z,19.10
2022-10-17T10:39:37.258Z,19.20
2022-10-17T10:42:08.193Z,19.20
2022-10-17T10:44:38.278Z,19.30
2022-10-17T10:47:30.670Z,19.30
2022-10-17T10:50:29.482Z,19.50
2022-10-17T10:53:20.388Z,19.50
2022-10-17T10:55:58.823Z,19.70
2022-10-17T10:58:31.309Z,19.80
2022-10-17T11:01:02.236Z,19.90
2022-10-17T11:03:50.266Z,20.10
2022-10-17T11:06:25.455Z,20.20
2022-10-17T11:09:18.300Z,20.30
2022-10-17T11:11:52.514Z,20.50
2022-10-17T11:14:22.229Z,20.60
2022-10-17T11:17:22.419Z,20.70
2022-10-17T11:20:12.603Z,20.80
2022-10-17T11:23:01.603Z,21.00
2022-10-17T11:25:37.207Z,21.00
2022-10-17T11:28:15.016Z,21.10
2022-10-17T11:30:51.391Z,21.20
2022-10-17T11:33:52.984Z,21.20
2022-10-17T11:36:24.376Z,21.50
2022-10-17T11:39:00.159Z,21.60
2022-10-17T11:41:34.022Z,21.80
2022-10-17T11:44:19.720Z,21.70
2022-10-17T11:46:51.742Z,21.80
2022-10-17T11:49:28.567Z,21.90
2022-10-17T11:52:03.108Z,21.90
2022-10-17T11:54:45.716Z,22.00
2022-10-17T11:57:43.488Z,22.00
2022-10-17T12:00:41.745Z,22.10
2022-10-17T12:03:41.373Z,22.30
2022-10-17T12:06:17.673Z,22.40
2022-10-17T12:08:58.485Z,22.40
2022-10-17T12:11:34.782Z,22.60
2022-10-17T12:14:05.877Z,22.70
2022-10-17T12:16:37.360Z,22.80
2022-10-17T12:19:06.432Z,22.90
2022-10-17T12:21:56.151Z,23.00
2022-10-17T12:24:44.289Z,23.00
2022-10-17T12:27:37.626Z,23.00
2022-10-17T12:30:14.961Z,23.20
2022-10-17T12:33:05.522Z,23.30
2022-10-17T12:35:35.428Z,23.30
2022-10-17T12:38:18.734Z,23.40
2022-10-17T12:40:49.070Z,23.30
2022-10-17T12:43:15.816Z,23.40
2022-10-17T12:45:59.413Z,23.60
2022-10-17T12:48:38.780Z,23.50
2022-10-17T12:51:34.042Z,23.60
2022-10-17T12:54:16.575Z,23.70
2022-10-17T12:56:47.197Z,23.80
2022-10-17T12:59:28.976Z,23.80
2022-10-17T13:01:59.366Z,23.80
2022-10-17T13:04:28.303Z,23.90
2022-10-17T13:06:58.868Z,23.90
2022-10-17T13:09:32.368Z,24.00
2022-10-17T13:12:02.968Z,24.10
2022-10-17T13:14:31.597Z,24.10
2022-10-17T13:17:01.593Z,24.20
2022-10-17T13:19:46.912Z,24.30
2022-10-17T13:22:22.102Z,24.20
2022-10-17T13:24:50.653Z,24.30
2022-10-17T13:27:36.901Z,24.20
2022-10-17T13:30:29.360Z,24.20
2022-10-17T13:32:59.725Z,24.40
2022-10-17T13:38:24.477Z,24.70
2022-10-17T13:40:51.225Z,24.60
2022-10-17T13:43:22.200Z,24.60
2022-10-17T13:46:36.348Z,24.80
2022-10-17T13:49:18.251Z,24.70
2022-10-17T13:51:47.851Z,24.70
2022-10-17T13:54:27.357Z,24.90
2022-10-17T13:56:58.451Z,24.90
2022-10-17T13:59:37.658Z,25.00
2022-10-17T14:02:05.897Z,24.70
2022-10-17T14:04:56.566Z,24.70
2022-10-17T14:08:09.958Z,24.60
2022-10-17T14:10:37.085Z,24.60
2022-10-17T14:13:08.066Z,24.70
2022-10-17T14:15:36.696Z,24.70
2022-10-17T14:18:08.971Z,24.70
2022-10-17T14:23:34.641Z,24.60
2022-10-17T14:26:12.658Z,24.40
2022-10-17T14:28:41.138Z,24.30
2022-10-17T14:31:28.957Z,24.30
2022-10-17T14:33:56.569Z,24.20
2022-10-17T14:36:38.580Z,24.50
2022-10-17T14:39:13.430Z,24.60
2022-10-17T14:41:44.474Z,24.50
2022-10-17T14:44:28.615Z,24.50
2022-10-17T14:47:00.227Z,24.50
2022-10-17T14:49:34.646Z,24.60
2022-10-17T14:52:18.371Z,24.70
2022-10-17T14:54:49.967Z,24.50
2022-10-17T14:57:27.719Z,24.30
2022-10-17T14:59:57.962Z,24.40
2022-10-17T15:02:27.635Z,24.40
2022-10-17T15:04:54.784Z,24.40
2022-10-17T15:07:22.304Z,24.30
2022-10-17T15:09:51.501Z,24.30
2022-10-17T15:12:23.434Z,24.40
2022-10-17T15:14:51.585Z,24.40
2022-10-17T15:17:25.329Z,24.40
2022-10-17T15:19:52.168Z,24.40
2022-10-17T15:22:19.448Z,24.20
2022-10-17T15:24:46.484Z,24.20
2022-10-17T15:27:21.815Z,23.90
2022-10-17T15:29:49.508Z,23.80
2022-10-17T15:32:16.515Z,23.60
2022-10-17T15:34:43.564Z,23.50
2022-10-17T15:37:18.907Z,23.20
2022-10-17T15:39:53.009Z,23.20
2022-10-17T15:42:27.475Z,23.20
2022-10-17T15:44:54.696Z,23.10
2022-10-17T15:47:33.865Z,23.10
2022-10-17T15:50:01.903Z,23.00
2022-10-17T15:52:28.685Z,23.00
2022-10-17T15:54:57.380Z,22.90
2022-10-17T15:57:29.315Z,22.70
2022-10-17T15:59:59.093Z,22.60
2022-10-17T16:02:26.469Z,22.40
2022-10-17T16:04:53.206Z,22.20
2022-10-17T16:07:21.295Z,22.00
2022-10-17T16:09:48.160Z,21.90
2022-10-17T16:14:55.580Z,21.60
2022-10-17T16:17:22.286Z,21.40
2022-10-17T16:19:49.045Z,21.30
2022-10-17T16:22:31.920Z,21.30
2022-10-17T16:25:07.483Z,21.30
2022-10-17T16:27:34.184Z,21.30
2022-10-17T16:30:01.083Z,21.30
2022-10-17T16:32:28.137Z,21.40
2022-10-17T16:34:55.129Z,21.30
2022-10-17T16:37:21.738Z,21.20
2022-10-17T16:39:52.433Z,21.00
2022-10-17T16:42:20.646Z,21.10
2022-10-17T16:44:48.725Z,21.10
2022-10-17T16:47:16.250Z,20.90
2022-10-17T16:49:45.263Z,20.80
2022-10-17T16:52:12.943Z,20.80
2022-10-17T16:54:39.623Z,20.70
2022-10-17T16:57:06.309Z,20.60
2022-10-17T16:59:33.076Z,20.50
2022-10-17T17:01:59.742Z,20.40
2022-10-17T17:04:26.472Z,20.20
2022-10-17T17:06:53.432Z,20.20
2022-10-17T17:09:20.154Z,20.10
2022-10-17T17:11:46.790Z,20.10
2022-10-17T17:14:13.797Z,20.00
2022-10-17T17:16:40.634Z,20.00
2022-10-17T17:19:10.542Z,19.90
2022-10-17T17:21:37.639Z,19.90
2022-10-17T17:24:05.227Z,19.80
2022-10-17T17:26:37.243Z,19.90
2022-10-17T17:29:04.362Z,19.80
2022-10-17T17:31:34.295Z,19.70
2022-10-17T17:34:01.973Z,19.70
2022-10-17T17:36:31.495Z,19.60
2022-10-17T17:39:00.606Z,19.70
2022-10-17T17:41:27.679Z,19.60
2022-10-17T17:43:55.793Z,19.50
2022-10-17T17:46:23.956Z,19.50
2022-10-17T17:48:51.946Z,19.50
2022-10-17T17:51:26.904Z,19.40
2022-10-17T17:53:56.752Z,19.20
2022-10-17T17:56:28.754Z,19.10
2022-10-17T17:59:01.234Z,18.90
2022-10-17T18:01:30.405Z,18.90
2022-10-17T18:04:00.868Z,19.00
2022-10-17T18:06:28.871Z,19.00
2022-10-17T18:08:59.399Z,18.90
2022-10-17T18:11:27.281Z,18.70
2022-10-17T18:13:55.758Z,18.70
2022-10-17T18:16:22.886Z,18.80
2022-10-17T18:18:49.654Z,18.80
2022-10-17T18:21:17.025Z,18.80
2022-10-17T18:23:46.824Z,18.90
2022-10-17T18:26:14.879Z,18.90
2022-10-17T18:28:43.202Z,18.90
2022-10-17T18:31:11.830Z,18.80
2022-10-17T18:33:39.472Z,18.80
2022-10-17T18:36:09.036Z,18.90
2022-10-17T18:38:36.360Z,18.80
2022-10-17T18:41:14.226Z,18.80
2022-10-17T18:43:42.370Z,18.80
2022-10-17T18:46:15.211Z,18.70
2022-10-17T18:48:44.556Z,18.80
2022-10-17T18:51:12.490Z,18.80
2022-10-17T18:53:44.224Z,18.80
2022-10-17T18:56:12.049Z,18.50
2022-10-17T18:58:39.684Z,18.50
2022-10-17T19:01:10.750Z,18.40
2022-10-17T19:03:38.118Z,18.30
2022-10-17T19:06:09.539Z,18.10
2022-10-17T19:08:37.433Z,18.20
2022-10-17T19:11:09.273Z,18.20
2022-10-17T19:13:36.294Z,18.30
2022-10-17T19:16:14.902Z,18.10
2022-10-17T19:18:41.618Z,18.00
2022-10-17T19:21:10.958Z,18.10
2022-10-17T19:23:38.337Z,18.10
2022-10-17T19:26:07.308Z,18.00
2022-10-17T19:28:34.746Z,17.80
2022-10-17T19:31:01.532Z,17.80
2022-10-17T19:36:03.390Z,17.60
2022-10-17T19:38:30.222Z,17.40
2022-10-17T19:40:56.946Z,17.40
2022-10-17T19:43:23.708Z,17.60
2022-10-17T19:45:59.033Z,17.80
2022-10-17T19:48:26.655Z,17.70
2022-10-17T19:50:53.719Z,17.60
2022-10-17T19:53:23.927Z,17.50
2022-10-17T19:55:51.044Z,17.20
2022-10-17T19:58:17.763Z,17.20
2022-10-17T20:00:52.286Z,17.10
2022-10-17T20:03:18.949Z,17.10
2022-10-17T20:05:45.991Z,17.10
2022-10-17T20:08:13.184Z,17.00
2022-10-17T20:10:40.289Z,17.00
2022-10-17T20:13:07.580Z,16.80
2022-10-17T20:15:34.351Z,16.80
2022-10-17T20:18:01.535Z,16.90
2022-10-17T20:20:28.387Z,16.80
2022-10-17T20:22:55.138Z,16.80
2022-10-17T20:25:21.891Z,16.70
2022-10-17T20:27:48.616Z,16.70
2022-10-17T20:30:15.571Z,16.80
2022-10-17T20:32:42.469Z,16.80
2022-10-17T20:35:09.380Z,16.70
2022-10-17T20:37:42.364Z,16.80
2022-10-17T20:40:33.584Z,16.80
2022-10-17T20:42:57.313Z,16.90
2022-10-17T20:45:37.528Z,16.90
2022-10-17T20:48:15.639Z,16.80
2022-10-17T20:50:43.773Z,16.80
2022-10-17T20:53:35.604Z,16.80
2022-10-17T20:56:06.752Z,16.80
2022-10-17T20:58:33.826Z,16.80
2022-10-17T21:01:06.348Z,16.70
2022-10-17T21:03:41.017Z,16.60
2022-10-17T21:06:10.856Z,16.70
2022-10-17T21:08:37.708Z,16.70
2022-10-17T21:11:16.801Z,16.60
2022-10-17T21:13:44.370Z,16.60
2022-10-17T21:16:18.802Z,16.60
2022-10-17T21:18:46.156Z,16.70
2022-10-17T21:21:21.480Z,16.80
2022-10-17T21:23:50.314Z,16.70
2022-10-17T21:26:18.454Z,16.80
2022-10-17T21:28:47.159Z,16.80
2022-10-17T21:31:22.540Z,16.80
2022-10-17T21:33:51.657Z,16.90
2022-10-17T21:36:19.526Z,16.90
2022-10-17T21:38:48.248Z,16.90
2022-10-17T21:41:16.932Z,17.00
2022-10-17T21:43:43.696Z,16.90
2022-10-17T21:46:13.236Z,17.00
2022-10-17T21:48:40.413Z,17.00
2022-10-17T21:51:11.115Z,17.00
2022-10-17T21:53:38.504Z,17.00
2022-10-17T21:56:07.525Z,17.00
2022-10-17T21:58:34.505Z,16.90
2022-10-17T22:01:12.488Z,16.90
2022-10-17T22:03:45.691Z,17.00
2022-10-17T22:09:05.943Z,17.00
2022-10-17T22:11:34.990Z,17.00
2022-10-17T22:14:07.359Z,17.00
2022-10-17T22:16:34.309Z,17.00
2022-10-17T22:19:06.180Z,17.00
2022-10-17T22:21:35.166Z,17.10
2022-10-17T22:24:05.052Z,17.10
2022-10-17T22:26:33.268Z,17.10
2022-10-17T22:29:00.424Z,17.10
2022-10-17T22:31:27.242Z,17.10
2022-10-17T22:33:54.051Z,17.20
2022-10-17T22:36:20.877Z,17.20
2022-10-17T22:38:48.457Z,17.20
2022-10-17T22:41:15.321Z,17.20
2022-10-17T22:43:42.142Z,17.20
2022-10-17T22:46:10.159Z,17.20
2022-10-17T22:48:37.059Z,17.10
2022-10-17T22:51:03.867Z,17.10
2022-10-17T22:53:30.871Z,17.10
2022-10-17T22:56:00.566Z,17.10
2022-10-17T22:58:28.739Z,17.10
2022-10-17T23:00:56.147Z,17.00
2022-10-17T23:03:24.321Z,17.00
2022-10-17T23:05:51.542Z,17.00
2022-10-17T23:08:19.114Z,17.00
2022-10-17T23:10:46.875Z,17.00
2022-10-17T23:13:14.355Z,17.00
2022-10-17T23:15:41.797Z,17.10
2022-10-17T23:18:09.835Z,17.00
2022-10-17T23:20:37.682Z,17.10
2022-10-17T23:23:05.156Z,17.10
2022-10-17T23:25:34.259Z,17.10
2022-10-17T23:28:01.595Z,17.10
2022-10-17T23:30:28.594Z,17.10
2022-10-17T23:32:55.299Z,17.10
2022-10-17T23:35:21.966Z,17.10
2022-10-17T23:37:48.667Z,17.10
2022-10-17T23:40:15.547Z,17.10
2022-10-17T23:42:42.287Z,17.10
2022-10-17T23:45:09.433Z,17.10
2022-10-17T23:47:36.115Z,17.10
2022-10-17T23:50:03.974Z,17.10
2022-10-17T23:52:30.663Z,17.00
2022-10-17T23:54:57.396Z,17.00
2022-10-17T23:57:24.039Z,17.10
2022-10-17T23:59:50.707Z,17.00
